createdAt,value
2022-11-10T04:09:53.981Z,26.88
2022-11-10T04:12:57.853Z,26.95
2022-11-10T04:15:44.320Z,29.08
2022-11-10T04:18:30.976Z,27.38
2022-11-10T04:21:17.386Z,27.45
2022-11-10T04:24:03.912Z,27.15
2022-11-10T04:26:52.048Z,26.58
2022-11-10T04:29:38.450Z,26.23
2022-11-10T04:32:24.964Z,26.92
2022-11-10T04:35:11.683Z,26.33
2022-11-10T04:37:58.335Z,25.60
2022-11-10T04:40:44.890Z,26.15
2022-11-10T04:43:33.795Z,26.95
2022-11-10T04:46:24.028Z,27.63
2022-11-10T04:49:11.971Z,27.10
2022-11-10T04:51:58.539Z,26.90
2022-11-10T04:54:45.551Z,28.38
2022-11-10T04:57:32.190Z,27.67
2022-11-10T05:00:20.776Z,28.35
2022-11-10T05:03:09.413Z,27.20
2022-11-10T05:05:55.818Z,27.33
2022-11-10T05:08:43.746Z,27.38
2022-11-10T05:11:30.307Z,28.35
2022-11-10T05:14:17.011Z,27.98
2022-11-10T05:17:05.284Z,28.77
2022-11-10T05:19:52.490Z,26.83
2022-11-10T05:22:39.268Z,26.15
2022-11-10T05:25:26.086Z,27.15
2022-11-10T05:28:13.510Z,29.50
2022-11-10T05:31:00.173Z,28.35
2022-11-10T05:33:48.274Z,28.10
2022-11-10T05:36:34.758Z,27.60
2022-11-10T05:39:21.311Z,27.67
2022-11-10T05:42:07.890Z,30.15
2022-11-10T05:44:54.254Z,29.20
2022-11-10T05:47:41.125Z,28.80
2022-11-10T05:50:29.134Z,31.02
2022-11-10T05:53:15.631Z,29.25
2022-11-10T05:56:02.285Z,30.77
2022-11-10T05:58:48.829Z,29.42
2022-11-10T06:01:35.277Z,28.10
2022-11-10T06:04:21.899Z,30.92
2022-11-10T06:07:09.796Z,30.15
2022-11-10T06:09:57.028Z,31.40
2022-11-10T06:12:43.556Z,31.55
2022-11-10T06:15:30.068Z,29.60
2022-11-10T06:18:16.931Z,34.50
2022-11-10T06:21:03.657Z,32.65
2022-11-10T06:23:51.497Z,33.72
2022-11-10T06:26:38.524Z,33.40
2022-11-10T06:29:27.018Z,34.35
2022-11-10T06:32:13.849Z,35.40
2022-11-10T06:35:01.024Z,36.65
2022-11-10T06:37:57.352Z,35.63
2022-11-10T06:40:45.403Z,33.67
2022-11-10T06:43:32.129Z,33.95
2022-11-10T06:46:18.890Z,36.05
2022-11-10T06:49:05.950Z,33.80
2022-11-10T06:51:53.193Z,34.10
2022-11-10T06:54:40.013Z,32.58
2022-11-10T06:57:27.971Z,31.92
2022-11-10T07:00:16.001Z,31.70
2022-11-10T07:03:03.813Z,34.60
2022-11-10T07:05:50.344Z,31.70
2022-11-10T07:08:36.800Z,33.55
2022-11-10T07:11:23.443Z,33.88
2022-11-10T07:14:11.756Z,33.88
2022-11-10T07:16:58.636Z,33.67
2022-11-10T07:19:45.165Z,34.15
2022-11-10T07:22:31.625Z,33.90
2022-11-10T07:25:18.125Z,34.15
2022-11-10T07:28:07.813Z,33.08
2022-11-10T07:30:56.228Z,32.85
2022-11-10T07:33:44.084Z,32.53
2022-11-10T07:36:30.918Z,32.38
2022-11-10T07:39:17.530Z,33.42
2022-11-10T07:42:04.003Z,34.47
2022-11-10T07:44:50.548Z,30.92
2022-11-10T07:47:38.347Z,32.25
2022-11-10T07:50:24.834Z,31.85
2022-11-10T07:53:13.510Z,32.80
2022-11-10T07:56:00.360Z,32.65
2022-11-10T07:58:48.630Z,32.00
2022-11-10T08:01:35.630Z,30.35
2022-11-10T08:04:24.351Z,32.20
2022-11-10T08:07:10.962Z,29.90
2022-11-10T08:09:58.278Z,31.40
2022-11-10T08:12:44.834Z,31.00
2022-11-10T08:15:32.794Z,30.90
2022-11-10T08:18:21.676Z,31.30
2022-11-10T08:21:09.762Z,30.50
2022-11-10T08:23:56.601Z,30.15
2022-11-10T08:26:43.277Z,28.95
2022-11-10T08:29:30.297Z,28.23
2022-11-10T08:32:16.879Z,29.40
2022-11-10T08:35:03.729Z,30.90
2022-11-10T08:37:51.620Z,29.05
2022-11-10T08:40:39.149Z,29.95
2022-11-10T08:43:26.148Z,29.90
2022-11-10T08:46:13.340Z,29.52
2022-11-10T08:48:59.775Z,29.73
2022-11-10T08:51:46.281Z,30.17
2022-11-10T08:54:34.229Z,29.92
2022-11-10T08:57:21.152Z,30.05
2022-11-10T09:00:09.466Z,29.98
2022-11-10T09:02:56.302Z,30.67
2022-11-10T09:05:43.544Z,28.83
2022-11-10T09:08:33.798Z,29.92
2022-11-10T09:11:21.803Z,28.05
2022-11-10T09:14:08.824Z,29.33
2022-11-10T09:16:55.746Z,29.00
2022-11-10T09:19:42.448Z,29.30
2022-11-10T09:22:29.293Z,28.05
2022-11-10T09:25:15.847Z,28.20
2022-11-10T09:28:03.745Z,28.15
2022-11-10T09:30:51.936Z,27.67
2022-11-10T09:33:38.771Z,27.30
2022-11-10T09:36:25.356Z,28.63
2022-11-10T09:39:11.744Z,27.15
2022-11-10T09:41:58.370Z,28.27
2022-11-10T09:44:55.140Z,30.90
2022-11-10T09:47:57.173Z,29.45
2022-11-10T09:50:48.590Z,28.98
2022-11-10T09:53:40.652Z,29.15
2022-11-10T09:56:33.120Z,30.60
2022-11-10T09:59:25.924Z,28.83
2022-11-10T10:02:25.218Z,29.77
2022-11-10T10:05:36.244Z,29.20
2022-11-10T10:08:39.203Z,29.55
2022-11-10T10:11:41.720Z,29.60
2022-11-10T10:14:42.118Z,29.98
2022-11-10T10:17:41.429Z,28.83
2022-11-10T10:20:37.472Z,29.65
2022-11-10T10:23:53.881Z,28.67
2022-11-10T10:26:42.226Z,28.60
2022-11-10T10:29:37.456Z,27.83
2022-11-10T10:32:24.847Z,25.67
2022-11-10T10:35:16.004Z,26.80
2022-11-10T10:38:05.727Z,26.95
2022-11-10T10:40:56.552Z,26.75
2022-11-10T10:43:48.643Z,25.63
2022-11-10T10:46:45.506Z,27.08
2022-11-10T10:49:33.760Z,26.33
2022-11-10T10:52:25.091Z,26.13
2022-11-10T10:55:14.201Z,27.33
2022-11-10T10:58:02.228Z,25.50
2022-11-10T11:00:51.742Z,24.65
2022-11-10T11:03:44.788Z,25.52
2022-11-10T11:06:32.519Z,24.88
2022-11-10T11:09:24.804Z,26.00
2022-11-10T11:12:14.913Z,25.65
2022-11-10T11:15:14.674Z,26.35
2022-11-10T11:18:03.648Z,24.58
2022-11-10T11:20:58.805Z,25.30
2022-11-10T11:24:11.899Z,23.42
2022-11-10T11:27:05.175Z,23.92
2022-11-10T11:30:10.980Z,24.92
2022-11-10T11:33:29.153Z,23.70
2022-11-10T11:36:26.746Z,22.48
2022-11-10T11:39:27.795Z,22.90
2022-11-10T11:42:32.486Z,22.55
2022-11-10T11:45:25.094Z,22.27
2022-11-10T11:48:33.616Z,19.20
2022-11-10T11:51:28.572Z,20.40
2022-11-10T11:54:27.695Z,21.48
2022-11-10T11:57:25.586Z,19.83
2022-11-10T12:00:16.239Z,18.52
2022-11-10T12:03:40.139Z,18.42
2022-11-10T12:06:37.417Z,18.27
2022-11-10T12:09:33.414Z,17.58
2022-11-10T12:12:50.568Z,18.10
2022-11-10T12:15:44.441Z,18.52
2022-11-10T12:18:34.569Z,17.52
2022-11-10T12:21:26.590Z,17.35
2022-11-10T12:24:46.225Z,17.60
2022-11-10T12:27:37.835Z,17.10
2022-11-10T12:30:25.073Z,17.80
2022-11-10T12:33:19.132Z,19.02
2022-11-10T12:36:09.743Z,18.55
2022-11-10T12:39:02.590Z,16.45
2022-11-10T12:41:54.744Z,17.10
2022-11-10T12:44:57.113Z,17.52
2022-11-10T12:47:45.659Z,16.83
2022-11-10T12:50:47.175Z,15.10
2022-11-10T12:53:38.185Z,13.77
2022-11-10T12:56:29.658Z,12.88
2022-11-10T12:59:32.457Z,14.13
2022-11-10T13:02:27.219Z,13.13
2022-11-10T13:05:26.691Z,12.45
2022-11-10T13:08:27.863Z,12.00
2022-11-10T13:11:36.478Z,12.82
2022-11-10T13:14:26.313Z,14.43
2022-11-10T13:17:52.485Z,13.27
2022-11-10T13:20:52.722Z,14.10
2022-11-10T13:24:19.430Z,13.38
2022-11-10T13:27:11.361Z,13.30
2022-11-10T13:29:59.289Z,14.57
2022-11-10T13:32:45.909Z,13.90
2022-11-10T13:35:55.515Z,13.85
2022-11-10T13:38:44.380Z,14.20
2022-11-10T13:41:35.571Z,13.65
2022-11-10T13:44:29.004Z,14.25
2022-11-10T13:47:44.517Z,12.65
2022-11-10T13:50:44.736Z,13.15
2022-11-10T13:53:43.990Z,12.93
2022-11-10T13:56:47.202Z,13.18
2022-11-10T13:59:45.350Z,13.30
2022-11-10T14:02:53.339Z,13.43
2022-11-10T14:06:05.878Z,12.77
2022-11-10T14:08:56.149Z,12.02
2022-11-10T14:11:50.030Z,12.52
2022-11-10T14:14:48.418Z,13.48
2022-11-10T14:17:40.764Z,13.00
2022-11-10T14:20:31.822Z,13.20
2022-11-10T14:23:34.214Z,12.88
2022-11-10T14:26:36.924Z,13.18
2022-11-10T14:29:39.048Z,13.60
2022-11-10T14:32:29.122Z,14.00
2022-11-10T14:35:22.920Z,15.15
2022-11-10T14:38:20.900Z,13.48
2022-11-10T14:41:15.097Z,13.75
2022-11-10T14:44:05.815Z,14.25
2022-11-10T14:46:52.828Z,14.43
2022-11-10T14:49:40.076Z,14.18
2022-11-10T14:52:27.784Z,13.48
2022-11-10T14:55:18.323Z,14.35
2022-11-10T14:58:18.542Z,14.93
2022-11-10T15:01:08.131Z,15.38
2022-11-10T15:03:55.936Z,15.20
2022-11-10T15:06:47.003Z,15.05
2022-11-10T15:09:35.194Z,14.70
2022-11-10T15:12:24.576Z,14.50
2022-11-10T15:15:22.891Z,15.18
2022-11-10T15:18:25.653Z,15.88
2022-11-10T15:21:14.299Z,18.52
2022-11-10T15:24:03.169Z,18.52
2022-11-10T15:26:50.437Z,18.55
2022-11-10T15:29:38.091Z,19.25
2022-11-10T15:32:33.716Z,19.88
2022-11-10T15:35:30.188Z,20.92
2022-11-10T15:38:33.269Z,28.27
2022-11-10T15:41:27.397Z,27.08
2022-11-10T15:44:17.037Z,22.08
2022-11-10T15:47:03.706Z,22.90
2022-11-10T15:49:50.535Z,20.73
2022-11-10T15:52:39.751Z,22.35
2022-11-10T15:55:27.112Z,22.63
2022-11-10T15:58:15.983Z,21.80
2022-11-10T16:01:03.498Z,21.88
2022-11-10T16:03:51.330Z,24.27
2022-11-10T16:06:38.799Z,24.65
2022-11-10T16:09:27.628Z,36.75
2022-11-10T16:12:18.864Z,35.33
2022-11-10T16:15:06.477Z,35.58
2022-11-10T16:17:53.128Z,40.33
2022-11-10T16:20:40.082Z,39.70
2022-11-10T16:23:27.190Z,35.97
2022-11-10T16:26:17.399Z,34.83
2022-11-10T16:29:04.258Z,36.35
2022-11-10T16:31:52.302Z,41.40
2022-11-10T16:34:39.066Z,38.97
2022-11-10T16:37:25.770Z,42.83
2022-11-10T16:40:15.883Z,43.00
2022-11-10T16:43:04.052Z,41.47
2022-11-10T16:45:53.353Z,38.63
2022-11-10T16:48:40.394Z,34.70
2022-11-10T16:51:30.589Z,36.00
2022-11-10T16:54:17.645Z,36.38
2022-11-10T16:57:11.859Z,35.78
2022-11-10T17:00:00.245Z,31.92
2022-11-10T17:02:55.855Z,31.70
2022-11-10T17:05:42.879Z,29.70
2022-11-10T17:08:31.781Z,26.38
2022-11-10T17:11:19.055Z,31.20
2022-11-10T17:14:07.048Z,32.78
2022-11-10T17:16:57.807Z,34.00
2022-11-10T17:19:44.466Z,30.90
2022-11-10T17:22:34.484Z,30.27
2022-11-10T17:25:27.028Z,31.40
2022-11-10T17:28:14.938Z,29.88
2022-11-10T17:31:03.243Z,27.25
2022-11-10T17:33:52.015Z,25.65
2022-11-10T17:36:39.032Z,24.88
2022-11-10T17:39:26.180Z,25.45
2022-11-10T17:42:14.128Z,25.50
2022-11-10T17:45:01.211Z,24.60
2022-11-10T17:47:49.039Z,26.25
2022-11-10T17:50:39.355Z,24.75
2022-11-10T17:53:28.366Z,24.52
2022-11-10T17:56:15.228Z,26.13
2022-11-10T17:59:01.785Z,25.20
2022-11-10T18:01:48.335Z,26.42
2022-11-10T18:04:35.770Z,27.10
2022-11-10T18:07:24.011Z,25.77
2022-11-10T18:10:13.959Z,25.30
2022-11-10T18:13:00.416Z,25.95
2022-11-10T18:15:48.985Z,26.75
2022-11-10T18:18:35.603Z,26.45
2022-11-10T18:21:22.150Z,25.23
2022-11-10T18:24:10.457Z,26.02
2022-11-10T18:26:57.052Z,27.27
2022-11-10T18:29:44.048Z,28.77
2022-11-10T18:32:30.819Z,28.42
2022-11-10T18:35:17.866Z,27.05
2022-11-10T18:38:04.593Z,26.90
2022-11-10T18:40:53.603Z,28.20
2022-11-10T18:43:40.815Z,30.92
2022-11-10T18:46:27.630Z,32.40
2022-11-10T18:49:14.743Z,31.80
2022-11-10T18:52:01.760Z,30.13
2022-11-10T18:54:48.554Z,29.10
2022-11-10T18:57:37.009Z,29.98
2022-11-10T19:00:23.780Z,30.70
2022-11-10T19:03:10.282Z,35.80
2022-11-10T19:05:59.045Z,48.72
2022-11-10T19:08:46.368Z,50.35
2022-11-10T19:11:34.289Z,49.05
2022-11-10T19:14:22.608Z,49.20
2022-11-10T19:17:09.474Z,49.55
2022-11-10T19:19:56.996Z,47.28
2022-11-10T19:22:43.969Z,47.38
2022-11-10T19:25:31.258Z,47.65
2022-11-10T19:28:17.796Z,46.42
2022-11-10T19:31:08.161Z,43.63
2022-11-10T19:33:56.921Z,43.45
2022-11-10T19:36:43.804Z,40.85
2022-11-10T19:39:30.680Z,37.00
2022-11-10T19:42:17.350Z,39.95
2022-11-10T19:45:04.443Z,37.10
2022-11-10T19:47:52.751Z,34.83
2022-11-10T19:50:39.645Z,36.65
2022-11-10T19:53:26.221Z,34.88
2022-11-10T19:56:15.221Z,33.22
2022-11-10T19:59:02.161Z,31.98
2022-11-10T20:01:48.861Z,30.33
2022-11-10T20:04:57.029Z,31.73
2022-11-10T20:08:04.175Z,32.75
2022-11-10T20:10:54.584Z,34.97
2022-11-10T20:13:41.998Z,36.30
2022-11-10T20:16:29.001Z,38.67
2022-11-10T20:19:15.645Z,39.13
2022-11-10T20:22:03.758Z,39.13
2022-11-10T20:24:51.377Z,38.08
2022-11-10T20:27:37.800Z,39.30
2022-11-10T20:30:24.971Z,36.33
2022-11-10T20:33:11.731Z,36.80
2022-11-10T20:36:05.184Z,35.58
2022-11-10T20:38:54.898Z,34.38
2022-11-10T20:41:41.674Z,34.03
2022-11-10T20:44:28.496Z,35.65
2022-11-10T20:47:15.545Z,35.55
2022-11-10T20:50:02.934Z,35.58
2022-11-10T20:52:50.386Z,34.88
2022-11-10T20:55:55.937Z,35.55
2022-11-10T20:58:43.347Z,33.72
2022-11-10T21:01:30.288Z,35.92
2022-11-10T21:04:17.205Z,37.17
2022-11-10T21:07:04.208Z,36.78
2022-11-10T21:09:50.955Z,39.45
2022-11-10T21:12:50.750Z,38.63
2022-11-10T21:15:40.278Z,36.75
2022-11-10T21:18:28.301Z,34.72
2022-11-10T21:21:22.959Z,33.42
2022-11-10T21:24:10.836Z,32.92
2022-11-10T21:26:58.096Z,32.72
2022-11-10T21:29:46.533Z,30.65
2022-11-10T21:32:33.170Z,35.58
2022-11-10T21:35:19.625Z,31.35
2022-11-10T21:38:06.630Z,29.63
2022-11-10T21:40:53.480Z,24.75
2022-11-10T21:43:40.364Z,26.65
2022-11-10T21:46:29.477Z,24.63
2022-11-10T21:49:15.993Z,23.40
2022-11-10T21:52:02.525Z,23.77
2022-11-10T21:54:48.987Z,24.20
2022-11-10T21:57:35.485Z,23.38
2022-11-10T22:00:22.002Z,23.30
2022-11-10T22:03:09.869Z,22.88
2022-11-10T22:05:56.516Z,23.23
2022-11-10T22:08:44.615Z,23.67
2022-11-10T22:11:48.440Z,23.23
2022-11-10T22:14:52.468Z,22.73
2022-11-10T22:17:56.433Z,23.23
2022-11-10T22:20:44.576Z,23.27
2022-11-10T22:23:48.536Z,23.58
2022-11-10T22:26:35.237Z,23.85
2022-11-10T22:29:22.095Z,22.08
2022-11-10T22:32:08.960Z,22.65
2022-11-10T22:34:55.767Z,22.73
2022-11-10T22:37:44.165Z,24.25
2022-11-10T22:40:48.435Z,23.95
2022-11-10T22:43:52.238Z,22.63
2022-11-10T22:46:40.819Z,24.02
2022-11-10T22:49:27.354Z,23.40
2022-11-10T22:52:13.922Z,24.25
2022-11-10T22:55:01.942Z,23.30
2022-11-10T22:57:48.906Z,24.75
2022-11-10T23:00:35.596Z,26.35
2022-11-10T23:03:22.478Z,26.45
2022-11-10T23:06:10.119Z,27.20
2022-11-10T23:08:57.545Z,25.10
2022-11-10T23:11:45.467Z,25.17
2022-11-10T23:14:31.937Z,24.95
2022-11-10T23:17:18.519Z,25.65
2022-11-10T23:20:05.486Z,24.50
2022-11-10T23:22:52.035Z,23.08
2022-11-10T23:25:38.566Z,23.00
2022-11-10T23:28:27.997Z,24.38
2022-11-10T23:31:16.797Z,22.38
2022-11-10T23:34:03.133Z,23.30
2022-11-10T23:36:49.845Z,22.70
2022-11-10T23:39:36.539Z,23.33
2022-11-10T23:42:22.947Z,23.70
2022-11-10T23:45:11.875Z,24.08
2022-11-10T23:48:01.879Z,25.88
2022-11-10T23:50:51.513Z,26.63
2022-11-10T23:53:38.150Z,26.48
2022-11-10T23:56:24.940Z,27.17
2022-11-10T23:59:11.539Z,27.08
